VYMD/MDL METAR and TAF weather

Enter ICAO airport designator
Station Type Date Time Source
VYMD METAR 2020/09/23 01:30 UTC NOAA

VYMD 230130Z 17008KT 7000 BKN018 FEW020CB BKN120 26/25 Q1008


Station Type Date Time Source
VYMD Decoded METAR 2020/09/23 01:30 UTC NOAA

Station name not available
Sep 22, 2020 - 09:30 PM EDT / 2020.09.23 0130 UTC
Wind: from the S (170 degrees) at 9 MPH (8 KT):0
Visibility: 4 mile(s):0
Sky conditions: mostly cloudy
Weather: Cumulonimbus clouds observed
Temperature: 78 F (26 C)
Dew Point: 77 F (25 C)
Relative Humidity: 94%
Pressure (altimeter): 29.77 in. Hg (1008 hPa)
ob: VYMD 230130Z 17008KT 7000 BKN018 FEW020CB BKN120 26/25 Q1008
cycle: 1

Station Type Date Time Source
VYMD TAF 2020/09/22 18:00 UTC NOAA

TAF VYMD 221700Z 2218/2318 18007KT 6000 BKN020 FEW025CB BKN110
TEMPO 2218/2224 24010G20KT 5000 -TSRA BKN015 FEW020CB OVC090

Example: see airport list